Rome State, OR

10:56 AM MDT on September 02, 2014 (GMT -0600)
Rome State | Change Station
CLOSE
Current Station
Airport
Location: Rome,
Elevation: 4049 ft
Nearby Weather Stations

Elev 4049 ft 42.59 °N, 117.86 °W | Updated 4 minutes ago

Clear
Clear
71 °F
Feels Like 71 °F
N
4
Wind Variable Wind from Variable
Gusts 10 mph

Today
High -- | Low -- °F
--% Chance of Precip.
Yesterday
High -- | Low -- °F
Precip. -- in
7:17 AM 8:23 PM
First Quarter, 53% visible
Pressure 29.89 in
Visibility -9999.0 miles
Clouds
Dew Point 33 °F
Humidity 25%
Rainfall 0.00 in
Snow Depth Not available.
UV Not available.
Pollen 5.40 out of 12
Air Quality Not available.
Flu Activity Not available.
METAR KREO 021652Z AUTO VRB03KT 22/01 A2997 RMK AO1 SLP120 T02170006

More Conditions Fewer Conditions

Pressure 29.89 in
Visibility -9999.0 miles
Clouds
Dew Point 33 °F
Humidity 25%
Rainfall 0.00 in
Snow Depth Not available.
UV Not available.
Pollen 5.40 out of 12
Air Quality Not available.
Flu Activity Not available.
METAR KREO 021652Z AUTO VRB03KT 22/01 A2997 RMK AO1 SLP120 T02170006

More Conditions Fewer Conditions

10-Day Weather Forecast

Almanac

Astronomy

Sep. 02, 2014 Rise Set
Actual Time 7:17 AM MDT 8:23 PM MDT
Civil Twilight 6:48 AM MDT 8:52 PM MDT
Nautical Twilight 6:14 AM MDT 9:27 PM MDT
Astronomical Twilight 5:37 AM MDT 10:03 PM MDT
Moon 3:15 PM MDT 12:21 AM MDT
Length of Visible Light 14h 04m
Length of Day
13h 06m
Tomorrow will be 2m 47s shorter.
First Quarter, 53% of the Moon is Illuminated
Today
First Quarter
Sep 8
Full
Sep 15
Last Quarter
Sep 24
New
Oct 1
First Quarter

Today's Extremes

State Highs State Lows

Community

WunderPhotos

Upload Photos

1,749,716 photos uploaded!

WunderBlogs® & News

Nearby

Snow Depth

Station Depth Elevation
Rock Springs 0 in 5550 ft
Blue Mountain Spring 0 in 5900 ft
Snow Mountain 0 in 6220 ft
Tipton 0 in 5150 ft
Gold Center 0 in 5340 ft

Earthquake Activity

City Distance Mag. Time & Date
No recent earthquake activity has been reported nearby.
Minimum magnitude displayed is 2.5.

Coastal Water Temperatures

Place Temperature
No Stations Reporting

Nearby Weather Stations